createdAt,value
2019-05-16T00:00:08.762Z,1.40
2019-05-16T00:02:45.116Z,1.60
2019-05-16T00:05:22.556Z,2.83
2019-05-16T00:07:59.416Z,1.93
2019-05-16T00:10:38.393Z,1.57
2019-05-16T00:13:13.869Z,1.47
2019-05-16T00:15:50.048Z,1.60
2019-05-16T00:18:28.284Z,1.40
2019-05-16T00:21:04.287Z,2.60
2019-05-16T00:23:40.607Z,1.23
2019-05-16T00:26:19.495Z,1.50
2019-05-16T00:28:54.966Z,1.23
2019-05-16T00:31:31.190Z,1.40
2019-05-16T00:34:09.429Z,1.30
2019-05-16T00:36:45.487Z,1.60
2019-05-16T00:39:21.795Z,1.50
2019-05-16T00:41:58.483Z,1.97
2019-05-16T00:44:35.126Z,1.70
2019-05-16T00:47:12.264Z,1.30
2019-05-16T00:49:48.477Z,1.50
2019-05-16T00:52:24.756Z,1.33
2019-05-16T00:55:01.093Z,2.17
2019-05-16T00:57:38.916Z,1.37
2019-05-16T01:00:18.054Z,1.50
2019-05-16T01:02:53.939Z,1.90
2019-05-16T01:05:30.139Z,1.40
2019-05-16T01:08:07.883Z,1.53
2019-05-16T01:10:44.347Z,4.20
2019-05-16T01:13:20.639Z,1.63
2019-05-16T01:15:58.011Z,1.57
2019-05-16T01:18:34.485Z,1.07
2019-05-16T01:21:10.935Z,1.53
2019-05-16T01:23:48.203Z,1.40
2019-05-16T01:26:24.714Z,1.20
2019-05-16T01:29:00.982Z,2.27
2019-05-16T01:31:37.927Z,2.27
2019-05-16T01:34:14.232Z,1.60
2019-05-16T01:36:50.512Z,1.13
2019-05-16T01:39:28.696Z,1.37
2019-05-16T01:42:04.648Z,1.10
2019-05-16T01:44:40.853Z,2.80
2019-05-16T01:47:18.289Z,1.63
2019-05-16T01:49:54.642Z,1.20
2019-05-16T01:52:30.844Z,1.73
2019-05-16T01:55:08.261Z,2.40
2019-05-16T01:57:44.723Z,1.30
2019-05-16T02:00:25.246Z,1.40
2019-05-16T02:02:58.760Z,1.40
2019-05-16T02:05:35.023Z,1.20
2019-05-16T02:08:11.239Z,2.53
2019-05-16T02:10:47.859Z,2.60
2019-05-16T02:13:24.360Z,1.50
2019-05-16T02:16:00.701Z,1.53
2019-05-16T02:18:38.188Z,2.00
2019-05-16T02:21:14.491Z,2.23
2019-05-16T02:23:51.706Z,2.07
2019-05-16T02:26:28.335Z,1.40
2019-05-16T02:29:04.604Z,1.60
2019-05-16T02:31:42.075Z,1.47
2019-05-16T02:34:21.481Z,1.43
2019-05-16T02:37:14.600Z,2.07
2019-05-16T02:39:34.508Z,1.90
2019-05-16T02:42:12.130Z,1.50
2019-05-16T02:44:51.134Z,1.37
2019-05-16T02:47:26.455Z,2.70
2019-05-16T02:50:02.867Z,2.30
2019-05-16T02:52:41.291Z,2.30
2019-05-16T02:55:16.940Z,1.83
2019-05-16T02:57:53.266Z,2.90
2019-05-16T03:00:42.718Z,2.80
2019-05-16T03:03:17.187Z,2.20
2019-05-16T03:05:55.400Z,1.50
2019-05-16T03:08:32.870Z,2.97
2019-05-16T03:11:11.832Z,1.83
2019-05-16T03:13:51.094Z,1.83
2019-05-16T03:16:31.561Z,3.00
2019-05-16T03:19:06.723Z,2.23
2019-05-16T03:21:43.547Z,1.83
2019-05-16T03:24:20.595Z,1.83
2019-05-16T03:26:56.992Z,1.87
2019-05-16T03:29:33.231Z,1.80
2019-05-16T03:32:13.848Z,2.83
2019-05-16T03:34:47.084Z,2.60
2019-05-16T03:37:24.876Z,2.67
2019-05-16T03:40:01.223Z,2.20
2019-05-16T03:42:37.321Z,2.50
2019-05-16T03:45:13.776Z,3.23
2019-05-16T03:47:51.130Z,2.27
2019-05-16T03:50:30.410Z,2.10
2019-05-16T03:53:05.411Z,3.37
2019-05-16T03:55:41.621Z,1.87
2019-05-16T03:58:22.099Z,2.40
2019-05-16T04:00:55.730Z,1.83
2019-05-16T04:03:33.227Z,3.07
2019-05-16T04:06:11.976Z,2.17
2019-05-16T04:08:50.432Z,3.30
2019-05-16T04:11:25.555Z,2.20
2019-05-16T04:14:01.806Z,2.23
2019-05-16T04:16:41.223Z,2.17
2019-05-16T04:19:15.815Z,2.87
2019-05-16T04:21:51.955Z,2.87
2019-05-16T04:24:31.625Z,2.97
2019-05-16T04:27:07.705Z,2.93
2019-05-16T04:29:43.813Z,2.70
2019-05-16T04:32:20.919Z,2.93
2019-05-16T04:34:57.547Z,2.80
2019-05-16T04:37:33.638Z,2.50
2019-05-16T04:40:12.110Z,2.90
2019-05-16T04:42:47.945Z,2.90
2019-05-16T04:45:24.192Z,2.90
2019-05-16T04:48:00.552Z,4.53
2019-05-16T04:50:36.780Z,2.87
2019-05-16T04:53:13.099Z,4.03
2019-05-16T04:55:51.631Z,3.13
2019-05-16T04:58:27.364Z,3.67
2019-05-16T05:01:03.489Z,2.73
2019-05-16T05:03:40.918Z,2.60
2019-05-16T05:06:20.589Z,2.53
2019-05-16T05:08:59.084Z,2.60
2019-05-16T05:11:33.579Z,3.67
2019-05-16T05:14:10.477Z,2.77
2019-05-16T05:16:46.973Z,3.17
2019-05-16T05:19:23.186Z,2.40
2019-05-16T05:22:01.292Z,3.53
2019-05-16T05:24:37.608Z,3.57
2019-05-16T05:27:13.850Z,3.87
2019-05-16T05:29:50.374Z,2.40
2019-05-16T05:32:26.821Z,3.03
2019-05-16T05:35:03.363Z,2.50
2019-05-16T05:37:41.006Z,3.03
2019-05-16T05:40:19.915Z,2.80
2019-05-16T05:42:55.284Z,3.07
2019-05-16T05:45:31.530Z,2.50
2019-05-16T05:48:07.762Z,3.63
2019-05-16T05:50:44.017Z,3.23
2019-05-16T05:53:21.035Z,2.60
2019-05-16T05:56:00.140Z,3.67
2019-05-16T05:58:35.602Z,2.73
2019-05-16T06:01:12.010Z,3.37
2019-05-16T06:03:51.377Z,2.57
2019-05-16T06:06:30.266Z,3.07
2019-05-16T06:09:06.182Z,3.50
2019-05-16T06:11:44.097Z,3.33
2019-05-16T06:14:21.202Z,2.93
2019-05-16T06:17:00.212Z,3.17
2019-05-16T06:19:37.355Z,2.40
2019-05-16T06:22:13.533Z,2.60
2019-05-16T06:24:51.655Z,2.87
2019-05-16T06:27:30.213Z,2.30
2019-05-16T06:30:08.176Z,3.03
2019-05-16T06:32:44.593Z,3.17
2019-05-16T06:35:23.702Z,3.10
2019-05-16T06:38:00.606Z,3.07
2019-05-16T06:40:40.458Z,2.33
2019-05-16T06:43:16.709Z,2.40
2019-05-16T06:45:52.949Z,2.63
2019-05-16T06:48:30.938Z,2.67
2019-05-16T06:51:07.303Z,3.73
2019-05-16T06:53:43.701Z,3.30
2019-05-16T06:56:20.184Z,2.20
2019-05-16T06:58:56.799Z,2.97
2019-05-16T07:01:36.124Z,2.80
2019-05-16T07:04:16.017Z,2.17
2019-05-16T07:06:58.963Z,2.53
2019-05-16T07:09:33.383Z,3.20
2019-05-16T07:12:10.465Z,3.20
2019-05-16T07:14:50.662Z,4.63
2019-05-16T07:17:27.487Z,3.53
2019-05-16T07:20:06.820Z,3.07
2019-05-16T07:22:43.045Z,2.40
2019-05-16T07:25:21.841Z,2.93
2019-05-16T07:28:02.025Z,2.13
2019-05-16T07:30:40.837Z,2.90
2019-05-16T07:33:17.128Z,4.50
2019-05-16T07:35:53.545Z,2.47
2019-05-16T07:38:31.654Z,2.90
2019-05-16T07:41:13.995Z,3.97
2019-05-16T07:43:50.533Z,2.57
2019-05-16T07:46:26.524Z,2.40
2019-05-16T07:49:02.975Z,2.60
2019-05-16T07:51:40.240Z,3.20
2019-05-16T07:54:21.371Z,3.17
2019-05-16T07:57:11.643Z,2.73
2019-05-16T07:59:40.511Z,2.80
2019-05-16T08:02:15.399Z,2.67
2019-05-16T08:04:53.051Z,3.00
2019-05-16T08:07:33.557Z,3.53
2019-05-16T08:10:10.924Z,2.50
2019-05-16T08:12:47.314Z,2.60
2019-05-16T08:15:25.082Z,3.20
2019-05-16T08:18:03.174Z,3.57
2019-05-16T08:20:41.729Z,3.00
2019-05-16T08:23:17.325Z,2.97
2019-05-16T08:25:55.189Z,2.97
2019-05-16T08:28:31.428Z,2.80
2019-05-16T08:31:11.155Z,2.63
2019-05-16T08:33:45.766Z,3.40
2019-05-16T08:36:22.168Z,3.00
2019-05-16T08:39:01.148Z,3.10
2019-05-16T08:41:37.896Z,3.30
2019-05-16T08:44:14.282Z,4.57
2019-05-16T08:46:57.064Z,3.60
2019-05-16T08:49:30.645Z,5.90
2019-05-16T08:52:07.481Z,4.50
2019-05-16T08:54:45.102Z,3.97
2019-05-16T09:00:01.450Z,4.37
2019-05-16T09:02:37.516Z,4.67
2019-05-16T09:05:16.904Z,3.87
2019-05-16T09:08:00.410Z,3.83
2019-05-16T09:10:59.901Z,7.20
2019-05-16T09:13:08.965Z,4.10
2019-05-16T09:15:48.134Z,4.67
2019-05-16T09:18:38.941Z,4.10
2019-05-16T09:21:31.041Z,4.33
2019-05-16T09:24:07.356Z,4.50
2019-05-16T09:26:43.633Z,5.23
2019-05-16T09:29:19.849Z,4.83
2019-05-16T09:32:12.500Z,5.23
2019-05-16T09:34:36.760Z,5.40
2019-05-16T09:37:11.925Z,5.67
2019-05-16T09:39:48.304Z,5.10
2019-05-16T09:42:24.492Z,5.90
2019-05-16T09:45:00.636Z,5.37
2019-05-16T09:47:38.999Z,5.20
2019-05-16T09:50:17.412Z,5.60
2019-05-16T09:52:56.444Z,6.27
2019-05-16T09:55:32.271Z,5.30
2019-05-16T09:58:08.737Z,6.90
2019-05-16T10:00:47.329Z,6.27
2019-05-16T10:03:22.889Z,5.93
2019-05-16T10:05:59.148Z,5.67
2019-05-16T10:08:37.465Z,4.83
2019-05-16T10:11:13.351Z,4.90
2019-05-16T10:13:49.752Z,5.50
2019-05-16T10:16:27.535Z,5.17
2019-05-16T10:19:04.018Z,4.73
2019-05-16T10:21:40.262Z,6.00
2019-05-16T10:24:16.487Z,5.80
2019-05-16T10:26:53.984Z,5.97
2019-05-16T10:29:30.685Z,5.83
2019-05-16T10:32:07.597Z,5.27
2019-05-16T10:34:44.019Z,6.67
2019-05-16T10:37:20.877Z,5.87
2019-05-16T10:39:59.838Z,5.57
2019-05-16T10:42:37.654Z,5.10
2019-05-16T10:45:13.120Z,5.47
2019-05-16T10:47:49.348Z,5.47
2019-05-16T10:50:27.589Z,4.17
2019-05-16T10:53:28.028Z,4.90
2019-05-16T10:55:41.400Z,4.90
2019-05-16T10:58:33.070Z,4.77
2019-05-16T11:01:15.665Z,4.60
2019-05-16T11:03:33.374Z,4.57
2019-05-16T11:06:24.431Z,4.53
2019-05-16T11:08:47.483Z,4.60
2019-05-16T11:11:23.762Z,4.20
2019-05-16T11:13:59.950Z,4.07
2019-05-16T11:16:36.823Z,4.97
2019-05-16T11:19:18.260Z,4.90
2019-05-16T11:21:50.955Z,5.20
2019-05-16T11:24:29.333Z,4.10
2019-05-16T11:27:07.331Z,5.43
2019-05-16T11:29:42.898Z,5.10
2019-05-16T11:32:19.112Z,6.17
2019-05-16T11:34:55.333Z,6.10
2019-05-16T11:37:31.529Z,6.00
2019-05-16T11:40:08.526Z,6.30
2019-05-16T11:42:48.676Z,5.53
2019-05-16T11:45:23.026Z,6.53
2019-05-16T11:47:59.394Z,6.57
2019-05-16T11:50:37.326Z,6.07
2019-05-16T11:53:13.722Z,5.23
2019-05-16T11:55:55.601Z,4.47
2019-05-16T11:58:27.780Z,5.30
2019-05-16T12:01:04.089Z,4.93
2019-05-16T12:03:40.409Z,4.60
2019-05-16T12:06:17.118Z,5.10
2019-05-16T12:08:53.559Z,4.57
2019-05-16T12:11:29.764Z,4.27
2019-05-16T12:14:07.274Z,4.90
2019-05-16T12:16:43.926Z,5.27
2019-05-16T12:19:20.128Z,4.20
2019-05-16T12:21:57.060Z,4.07
2019-05-16T12:24:38.730Z,4.13
2019-05-16T12:27:11.467Z,4.27
2019-05-16T12:29:52.692Z,4.33
2019-05-16T12:32:27.557Z,5.63
2019-05-16T12:35:06.404Z,4.60
2019-05-16T12:37:42.335Z,3.97
2019-05-16T12:40:18.739Z,4.13
2019-05-16T12:42:57.145Z,3.90
2019-05-16T12:45:32.956Z,4.43
2019-05-16T12:48:09.152Z,4.20
2019-05-16T12:50:48.050Z,3.90
2019-05-16T12:53:31.277Z,3.37
2019-05-16T12:56:01.275Z,3.23
2019-05-16T12:58:41.680Z,3.10
2019-05-16T13:01:17.616Z,3.03
2019-05-16T13:03:53.368Z,3.13
2019-05-16T13:06:29.532Z,3.67
2019-05-16T13:09:07.321Z,3.77
2019-05-16T13:11:43.528Z,3.03
2019-05-16T13:14:19.955Z,2.63
2019-05-16T13:16:56.081Z,2.87
2019-05-16T13:19:34.017Z,2.90
2019-05-16T13:22:10.191Z,2.90
2019-05-16T13:24:47.900Z,3.50
2019-05-16T13:27:24.424Z,2.63
2019-05-16T13:30:00.669Z,2.63
2019-05-16T13:32:37.584Z,2.50
2019-05-16T13:35:16.993Z,2.50
2019-05-16T13:37:52.708Z,3.93
2019-05-16T13:40:28.983Z,3.80
2019-05-16T13:43:09.488Z,3.23
2019-05-16T13:45:43.504Z,4.07
2019-05-16T13:48:19.793Z,3.43
2019-05-16T13:51:08.407Z,2.97
2019-05-16T13:53:36.835Z,2.70
2019-05-16T13:56:13.571Z,3.03
2019-05-16T13:58:49.841Z,3.57
2019-05-16T14:01:27.842Z,2.60
2019-05-16T14:04:09.035Z,4.20
2019-05-16T14:06:42.045Z,2.83
2019-05-16T14:09:18.298Z,3.00
2019-05-16T14:11:56.372Z,3.33
2019-05-16T14:14:38.083Z,3.90
2019-05-16T14:17:14.438Z,4.10
2019-05-16T14:19:48.270Z,4.27
2019-05-16T14:22:24.477Z,4.90
2019-05-16T14:25:00.804Z,4.63
2019-05-16T14:27:38.164Z,3.97
2019-05-16T14:30:17.733Z,3.83
2019-05-16T14:32:54.150Z,5.00
2019-05-16T14:35:30.356Z,3.83
2019-05-16T14:38:06.690Z,3.37
2019-05-16T14:40:46.635Z,3.80
2019-05-16T14:43:21.267Z,3.33
2019-05-16T14:45:57.506Z,3.00
2019-05-16T14:48:33.776Z,3.50
2019-05-16T14:51:09.978Z,3.60
2019-05-16T14:53:47.125Z,3.97
2019-05-16T14:56:23.600Z,4.07
2019-05-16T14:58:59.843Z,3.80
2019-05-16T15:01:37.658Z,3.17
2019-05-16T15:04:14.172Z,3.20
2019-05-16T15:06:50.409Z,4.03
2019-05-16T15:09:27.249Z,3.13
2019-05-16T15:12:03.671Z,4.40
2019-05-16T15:14:39.935Z,3.63
2019-05-16T15:17:16.728Z,3.30
2019-05-16T15:19:53.095Z,2.87
2019-05-16T15:22:29.376Z,2.90
2019-05-16T15:25:07.998Z,2.30
2019-05-16T15:27:44.550Z,2.50
2019-05-16T15:30:22.700Z,2.57
2019-05-16T15:32:58.923Z,2.00
2019-05-16T15:35:37.795Z,2.60
2019-05-16T15:38:13.016Z,2.20
2019-05-16T15:40:50.360Z,2.03
2019-05-16T15:43:27.559Z,1.70
2019-05-16T15:46:07.630Z,1.80
2019-05-16T15:48:42.239Z,2.60
2019-05-16T15:51:21.131Z,2.30
2019-05-16T15:53:57.384Z,2.13
2019-05-16T15:56:34.381Z,1.90
2019-05-16T15:59:10.556Z,2.27
2019-05-16T16:01:47.374Z,2.13
2019-05-16T16:04:23.765Z,1.53
2019-05-16T16:07:00.012Z,1.67
2019-05-16T16:09:37.904Z,2.00
2019-05-16T16:12:16.842Z,2.17
2019-05-16T16:14:52.320Z,2.57
2019-05-16T16:17:29.297Z,2.37
2019-05-16T16:20:10.375Z,2.20
2019-05-16T16:22:46.885Z,1.80
2019-05-16T16:25:22.543Z,1.93
2019-05-16T16:27:58.794Z,2.00
2019-05-16T16:30:37.353Z,1.87
2019-05-16T16:33:22.539Z,1.80
2019-05-16T16:35:51.201Z,2.40
2019-05-16T16:38:27.575Z,2.00
2019-05-16T16:41:03.904Z,2.47
2019-05-16T16:43:40.100Z,2.60
2019-05-16T16:46:16.813Z,3.00
2019-05-16T16:48:53.205Z,2.87
2019-05-16T16:51:29.380Z,3.00
2019-05-16T16:54:07.660Z,3.50
2019-05-16T16:56:43.489Z,2.50
2019-05-16T16:59:19.730Z,2.57
2019-05-16T17:01:57.205Z,2.30
2019-05-16T17:04:33.554Z,2.43
2019-05-16T17:07:09.868Z,1.90
2019-05-16T17:09:47.094Z,2.03
2019-05-16T17:12:23.498Z,2.47
2019-05-16T17:14:59.714Z,2.43
2019-05-16T17:17:37.381Z,2.53
2019-05-16T17:20:14.205Z,2.20
2019-05-16T17:22:54.119Z,2.10
2019-05-16T17:25:30.597Z,1.73
2019-05-16T17:28:07.252Z,2.37
2019-05-16T17:30:43.533Z,2.50
2019-05-16T17:33:19.769Z,2.10
2019-05-16T17:35:55.914Z,2.27
2019-05-16T17:38:32.137Z,2.03
2019-05-16T17:41:08.269Z,2.00
2019-05-16T17:43:46.807Z,1.63
2019-05-16T17:46:33.994Z,1.80
2019-05-16T17:49:00.447Z,1.80
2019-05-16T17:51:36.872Z,2.37
2019-05-16T17:54:13.241Z,2.47
2019-05-16T17:56:49.442Z,3.00
2019-05-16T17:59:27.574Z,3.07
2019-05-16T18:02:03.593Z,3.20
2019-05-16T18:04:41.138Z,3.37
2019-05-16T18:07:17.684Z,3.30
2019-05-16T18:09:53.916Z,3.13
2019-05-16T18:12:30.078Z,3.60
2019-05-16T18:15:09.701Z,3.30
2019-05-16T18:17:46.701Z,3.43
2019-05-16T18:20:23.095Z,3.17
2019-05-16T18:22:59.362Z,4.00
2019-05-16T18:25:36.455Z,3.83
2019-05-16T18:28:12.941Z,5.00
2019-05-16T18:30:49.175Z,5.10
2019-05-16T18:33:27.653Z,5.23
2019-05-16T18:36:03.338Z,5.97
2019-05-16T18:38:39.565Z,6.53
2019-05-16T18:41:16.647Z,7.23
2019-05-16T18:43:52.978Z,6.87
2019-05-16T18:46:29.177Z,7.10
2019-05-16T18:49:07.253Z,7.33
2019-05-16T18:51:43.179Z,7.13
2019-05-16T18:54:19.343Z,7.53
2019-05-16T18:56:57.763Z,6.97
2019-05-16T18:59:33.562Z,7.33
2019-05-16T19:02:10.374Z,6.00
2019-05-16T19:04:49.780Z,6.83
2019-05-16T19:07:24.654Z,6.70
2019-05-16T19:10:00.913Z,6.47
2019-05-16T19:12:37.350Z,6.53
2019-05-16T19:15:14.374Z,6.80
2019-05-16T19:17:50.611Z,7.20
2019-05-16T19:20:26.842Z,8.03
2019-05-16T19:23:03.244Z,8.20
2019-05-16T19:25:39.416Z,8.50
2019-05-16T19:28:15.552Z,8.73
2019-05-16T19:30:51.828Z,7.83
2019-05-16T19:33:28.083Z,9.33
2019-05-16T19:36:04.303Z,9.43
2019-05-16T19:38:40.583Z,10.60
2019-05-16T19:41:16.815Z,9.37
2019-05-16T19:43:53.070Z,10.43
2019-05-16T19:46:29.244Z,11.03
2019-05-16T19:49:06.434Z,11.73
2019-05-16T19:51:42.836Z,10.43
2019-05-16T19:54:19.051Z,10.73
2019-05-16T19:56:56.562Z,12.93
2019-05-16T19:59:33.038Z,11.53
2019-05-16T20:02:09.209Z,10.60
2019-05-16T20:04:47.067Z,11.57
2019-05-16T20:07:23.461Z,10.80
2019-05-16T20:09:59.675Z,11.43
2019-05-16T20:12:37.018Z,10.03
2019-05-16T20:15:16.416Z,10.97
2019-05-16T20:17:55.247Z,11.47
2019-05-16T20:20:29.976Z,9.53
2019-05-16T20:23:06.748Z,10.40
2019-05-16T20:25:42.963Z,10.07
2019-05-16T20:28:19.232Z,10.07
2019-05-16T20:30:57.096Z,9.63
2019-05-16T20:33:33.423Z,9.40
2019-05-16T20:36:09.753Z,10.80
2019-05-16T20:38:46.560Z,9.30
2019-05-16T20:41:22.840Z,8.90
2019-05-16T20:43:58.984Z,11.77
2019-05-16T20:46:35.384Z,10.97
2019-05-16T20:49:11.697Z,14.47
2019-05-16T20:51:50.102Z,11.40
2019-05-16T20:54:26.825Z,11.60
2019-05-16T20:57:03.176Z,12.73
2019-05-16T20:59:39.423Z,14.53
2019-05-16T21:02:16.372Z,12.43
2019-05-16T21:04:52.812Z,15.20
2019-05-16T21:07:28.945Z,15.60
2019-05-16T21:10:08.697Z,15.90
2019-05-16T21:12:46.751Z,13.33
2019-05-16T21:15:22.821Z,18.60
2019-05-16T21:17:59.291Z,16.93
2019-05-16T21:20:35.579Z,20.43
2019-05-16T21:23:11.834Z,18.67
2019-05-16T21:25:47.997Z,22.13
2019-05-16T21:28:26.219Z,24.30
2019-05-16T21:31:01.984Z,16.60
2019-05-16T21:33:38.158Z,19.90
2019-05-16T21:36:16.072Z,13.97
2019-05-16T21:38:52.239Z,12.33
2019-05-16T21:41:28.506Z,14.07
2019-05-16T21:44:06.435Z,13.93
2019-05-16T21:46:42.739Z,12.73
2019-05-16T21:49:19.566Z,13.27
2019-05-16T21:51:57.092Z,10.57
2019-05-16T21:54:33.417Z,11.53
2019-05-16T21:57:09.680Z,10.33
2019-05-16T21:59:47.783Z,10.30
2019-05-16T22:02:23.913Z,12.97
2019-05-16T22:05:00.663Z,9.53
2019-05-16T22:07:36.860Z,11.40
2019-05-16T22:10:13.292Z,13.37
2019-05-16T22:12:49.536Z,11.70
2019-05-16T22:15:25.833Z,12.70
2019-05-16T22:18:02.064Z,12.17
2019-05-16T22:20:38.203Z,10.77
2019-05-16T22:23:14.461Z,13.87
2019-05-16T22:25:50.623Z,13.00
2019-05-16T22:28:29.902Z,12.80
2019-05-16T22:31:07.175Z,13.00
2019-05-16T22:33:42.733Z,9.43
2019-05-16T22:36:18.932Z,9.60
2019-05-16T22:38:56.728Z,9.83
2019-05-16T22:41:32.977Z,9.00
2019-05-16T22:44:09.177Z,7.83
2019-05-16T22:46:46.503Z,8.50
2019-05-16T22:49:22.679Z,7.40
2019-05-16T22:51:58.876Z,8.27
2019-05-16T22:54:37.111Z,8.03
2019-05-16T22:57:13.078Z,7.13
2019-05-16T22:59:49.260Z,7.60
2019-05-16T23:02:27.368Z,9.60
2019-05-16T23:05:03.352Z,9.53
2019-05-16T23:07:39.526Z,10.77
2019-05-16T23:10:16.669Z,9.30
2019-05-16T23:12:52.973Z,11.07
2019-05-16T23:15:29.142Z,10.57
2019-05-16T23:18:06.992Z,10.00
2019-05-16T23:20:43.483Z,11.07
2019-05-16T23:23:19.689Z,10.50
2019-05-16T23:25:56.963Z,8.90
2019-05-16T23:28:33.275Z,8.13
2019-05-16T23:31:09.572Z,11.93
2019-05-16T23:33:47.032Z,10.53
2019-05-16T23:36:23.428Z,13.50
2019-05-16T23:38:59.591Z,13.43
2019-05-16T23:41:36.763Z,12.33
2019-05-16T23:44:13.112Z,18.03
2019-05-16T23:46:49.320Z,18.63
2019-05-16T23:49:27.504Z,17.67
2019-05-16T23:52:03.415Z,19.00
2019-05-16T23:54:39.668Z,21.80
2019-05-16T23:57:15.798Z,17.10
2019-05-16T23:59:51.975Z,18.23
